Time;durP1;ratioP1;P1;durP2;ratioP2;P2;SDS_P1;SDS_P2;PMS_P1;PMS_P2;Temp;Humidity;BMP_temperature;BMP_pressure;BME280_temperature;BME280_humidity;BME280_pressure;Samples;Min_cycle;Max_cycle;Signal;HPM_P1;HPM_P2
2023/05/10 00:01:32;;;;;;;15.73;6.70;;;;;;;9.98;32.69;100823.78;5075005;28;20042;-70
2023/05/10 00:03:58;;;;;;;18.05;6.40;;;;;;;10.11;33.34;100850.63;5075531;28;20111;-64
2023/05/10 00:06:23;;;;;;;13.52;6.55;;;;;;;10.07;33.28;100841.94;5075640;28;20096;-71
2023/05/10 00:08:49;;;;;;;15.68;6.90;;;;;;;10.02;33.48;100844.03;5092748;28;20052;-69
2023/05/10 00:11:15;;;;;;;13.40;7.07;;;;;;;10.00;33.72;100845.94;5074841;28;20044;-70
2023/05/10 00:13:40;;;;;;;15.73;6.45;;;;;;;10.00;33.45;100843.28;5092205;28;20107;-69
2023/05/10 00:16:06;;;;;;;14.32;6.40;;;;;;;9.94;33.62;100828.44;5075108;28;20161;-68
2023/05/10 00:18:31;;;;;;;14.82;6.90;;;;;;;9.91;34.00;100826.84;5092814;28;20055;-69
2023/05/10 00:20:57;;;;;;;19.27;7.22;;;;;;;9.99;33.83;100841.56;5093038;28;20078;-70
2023/05/10 00:23:22;;;;;;;14.98;6.90;;;;;;;9.92;33.83;100825.00;5092531;28;20032;-69
2023/05/10 00:25:48;;;;;;;17.50;7.25;;;;;;;9.96;33.61;100834.56;5092307;28;20114;-69
2023/05/10 00:28:13;;;;;;;17.40;6.53;;;;;;;9.94;33.43;100831.13;5075000;28;20358;-70
2023/05/10 00:30:39;;;;;;;14.73;6.70;;;;;;;9.98;33.40;100837.16;5092533;28;20446;-70
2023/05/10 00:33:05;;;;;;;14.73;6.70;;;;;;;9.96;33.20;100839.06;5094449;28;20414;-70
2023/05/10 00:35:30;;;;;;;15.07;6.68;;;;;;;9.98;32.78;100842.50;5079201;28;20028;-66
2023/05/10 00:37:56;;;;;;;14.65;6.43;;;;;;;9.96;33.48;100841.75;5097435;28;20028;-67
2023/05/10 00:40:21;;;;;;;13.40;6.10;;;;;;;9.94;33.55;100840.97;5097363;28;20024;-69
2023/05/10 00:42:47;;;;;;;14.40;5.88;;;;;;;9.95;34.11;100842.69;5080393;28;20117;-70
2023/05/10 00:45:12;;;;;;;20.10;6.15;;;;;;;9.94;34.11;100843.66;5113577;28;20024;-70
2023/05/10 00:47:38;;;;;;;13.88;6.32;;;;;;;9.91;33.73;100850.91;5116182;28;20101;-70
2023/05/10 00:50:05;;;;;;;11.80;6.25;;;;;;;9.88;33.84;100847.56;5082777;28;20097;-71
2023/05/10 00:52:31;;;;;;;16.92;6.38;;;;;;;9.93;33.14;100849.97;5096694;28;20035;-64
2023/05/10 00:54:57;;;;;;;14.40;6.15;;;;;;;9.90;33.74;100851.88;5096941;28;20028;-71
2023/05/10 00:57:22;;;;;;;15.93;5.90;;;;;;;9.81;33.35;100828.34;5096598;28;20497;-69
2023/05/10 00:59:49;;;;;;;15.55;6.30;;;;;;;9.90;34.05;100849.19;5094075;28;20092;-72
2023/05/10 01:02:15;;;;;;;13.48;6.00;;;;;;;9.81;33.87;100847.06;5078594;28;20107;-70
2023/05/10 01:04:40;;;;;;;17.50;6.10;;;;;;;9.73;33.72;100820.78;5096005;28;20115;-69
2023/05/10 01:07:06;;;;;;;16.40;6.53;;;;;;;9.74;34.33;100813.66;5095027;28;20048;-69
2023/05/10 01:09:33;;;;;;;15.63;6.18;;;;;;;9.87;34.21;100838.66;5095686;28;20043;-66
2023/05/10 01:11:59;;;;;;;12.50;5.88;;;;;;;9.87;33.93;100849.38;5096142;28;20031;-69
2023/05/10 01:14:26;;;;;;;15.00;5.97;;;;;;;9.86;34.22;100847.66;5096011;28;20032;-69
2023/05/10 01:16:53;;;;;;;14.52;6.00;;;;;;;9.72;33.84;100821.75;5095788;28;20085;-70
2023/05/10 01:19:29;;;;;;;26.83;5.95;;;;;;;9.93;34.35;100847.28;5095843;28;20357;-69
2023/05/10 01:21:55;;;;;;;9.00;5.70;;;;;;;9.85;33.73;100848.59;5077763;28;20035;-69
2023/05/10 01:24:53;;;;;;;14.85;6.22;;;;;;;9.94;33.37;100841.81;5095747;28;20040;-69
2023/05/10 01:27:30;;;;;;;13.20;5.43;;;;;;;9.86;33.69;100844.97;5077721;28;20039;-69
2023/05/10 01:30:33;;;;;;;13.70;5.10;;;;;;;9.95;33.35;100846.22;5095025;28;20434;-69
2023/05/10 01:33:30;;;;;;;13.50;6.13;;;;;;;9.94;33.36;100833.81;5095415;28;20456;-72
2023/05/10 01:36:03;;;;;;;;;;;;;;;10.21;32.28;100833.03;5095911;28;20047;-71
2023/05/10 01:39:25;;;;;;;11.48;4.70;;;;;;;9.90;32.66;100811.75;5095465;28;20309;-68
2023/05/10 01:42:06;;;;;;;11.23;5.38;;;;;;;9.99;33.34;100844.22;4993803;28;20034;-72
2023/05/10 01:44:42;;;;;;;17.65;5.45;;;;;;;9.93;33.13;100840.09;4993048;28;20038;-70
2023/05/10 01:47:08;;;;;;;14.77;5.75;;;;;;;9.85;33.22;100842.41;5071267;28;20074;-70
2023/05/10 01:49:41;;;;;;;11.57;5.22;;;;;;;9.87;33.35;100844.00;5095378;28;20060;-70
2023/05/10 01:52:11;;;;;;;10.07;5.15;;;;;;;9.85;33.25;100840.56;5095359;28;20123;-69
2023/05/10 01:54:44;;;;;;;15.30;5.38;;;;;;;9.87;32.73;100846.69;5077375;28;20097;-69
2023/05/10 01:57:13;;;;;;;14.20;5.07;;;;;;;9.81;32.97;100844.41;5095046;28;20335;-69
2023/05/10 01:59:42;;;;;;;16.15;5.65;;;;;;;9.83;32.98;100841.66;5094362;28;20035;-69
2023/05/10 02:02:11;;;;;;;14.25;5.15;;;;;;;9.78;33.14;100833.88;5076633;28;20032;-68
2023/05/10 02:04:39;;;;;;;18.65;5.25;;;;;;;9.63;33.11;100798.25;5094994;28;20035;-68
2023/05/10 02:07:06;;;;;;;12.20;5.15;;;;;;;9.80;33.54;100826.63;5094840;28;20040;-70
2023/05/10 02:09:34;;;;;;;17.33;6.07;;;;;;;9.83;33.55;100828.28;5095083;28;20051;-70
2023/05/10 02:12:02;;;;;;;14.00;5.40;;;;;;;9.84;33.34;100833.50;5094906;28;20100;-70
2023/05/10 02:14:35;;;;;;;20.83;5.57;;;;;;;9.76;33.72;100811.72;5094669;28;20426;-69
2023/05/10 02:17:04;;;;;;;19.30;5.57;;;;;;;9.86;33.31;100834.28;5094601;28;20031;-69
2023/05/10 02:19:31;;;;;;;18.23;6.18;;;;;;;9.86;32.53;100828.91;5094842;28;20069;-70
2023/05/10 02:22:18;;;;;;;21.05;5.78;;;;;;;9.89;32.31;100827.88;5079941;28;20051;-68
2023/05/10 02:24:45;;;;;;;15.48;5.53;;;;;;;9.89;32.31;100833.22;5094368;28;20047;-71
2023/05/10 02:27:13;;;;;;;16.98;5.65;;;;;;;9.91;32.72;100829.53;5094416;28;20035;-70
2023/05/10 02:29:39;;;;;;;12.52;5.18;;;;;;;9.75;33.26;100799.31;5094365;28;20093;-69
2023/05/10 02:32:06;;;;;;;13.13;5.63;;;;;;;9.96;33.08;100821.19;5094728;28;20024;-70
2023/05/10 02:34:32;;;;;;;18.70;5.95;;;;;;;9.95;32.89;100815.94;5094197;28;20447;-72
2023/05/10 02:36:59;;;;;;;20.73;6.18;;;;;;;10.01;32.73;100826.25;5093375;28;20036;-70
2023/05/10 02:39:28;;;;;;;15.90;5.53;;;;;;;10.02;32.87;100819.94;5094070;28;20115;-70
2023/05/10 02:41:55;;;;;;;15.32;5.38;;;;;;;10.05;32.68;100819.75;5094481;28;20028;-71
2023/05/10 02:44:22;;;;;;;17.08;5.90;;;;;;;10.13;32.06;100814.81;5094139;28;20028;-69
2023/05/10 02:46:48;;;;;;;11.15;5.43;;;;;;;10.13;32.57;100817.47;5094182;28;20028;-70
2023/05/10 02:49:15;;;;;;;14.57;5.25;;;;;;;10.20;32.84;100815.25;5094316;28;20413;-70
2023/05/10 02:51:47;;;;;;;14.40;5.20;;;;;;;10.10;32.43;100787.38;5094525;28;20028;-71
2023/05/10 02:54:18;;;;;;;12.32;5.25;;;;;;;10.32;32.59;100802.91;5094950;28;20055;-71
2023/05/10 02:56:50;;;;;;;9.25;4.95;;;;;;;10.40;32.80;100810.44;5094034;28;20012;-70
2023/05/10 02:59:16;;;;;;;16.42;5.35;;;;;;;10.40;32.18;100815.81;5094006;28;20035;-70
2023/05/10 03:01:42;;;;;;;10.38;4.90;;;;;;;10.30;31.96;100783.41;5094659;28;20452;-69
2023/05/10 03:04:07;;;;;;;11.75;5.20;;;;;;;10.46;31.88;100813.63;5076627;28;20034;-68
2023/05/10 03:06:33;;;;;;;12.85;5.15;;;;;;;10.50;31.91;100805.41;5075683;28;20051;-70
2023/05/10 03:08:59;;;;;;;13.32;4.95;;;;;;;10.49;32.31;100809.91;5094099;28;20040;-71
2023/05/10 03:11:37;;;;;;;13.70;5.03;;;;;;;10.67;32.25;100812.34;5093561;28;20035;-73
2023/05/10 03:14:09;;;;;;;10.50;5.05;;;;;;;10.62;32.21;100812.66;5076194;28;20338;-71
2023/05/10 03:16:42;;;;;;;8.60;4.60;;;;;;;10.73;31.55;100812.78;5094246;28;20028;-71
2023/05/10 03:19:46;;;;;;;9.25;4.90;;;;;;;10.88;31.36;100805.56;5093611;28;20032;-70
2023/05/10 03:22:19;;;;;;;10.05;4.95;;;;;;;10.86;31.17;100806.66;5093059;28;20043;-70
2023/05/10 03:24:46;;;;;;;11.10;4.88;;;;;;;10.88;31.57;100800.22;5094063;28;20407;-69
2023/05/10 03:27:14;;;;;;;14.02;4.75;;;;;;;10.96;31.48;100806.88;5094313;28;20028;-69
2023/05/10 03:29:42;;;;;;;11.38;5.07;;;;;;;10.98;31.08;100802.28;5076733;28;20038;-66
2023/05/10 03:32:08;;;;;;;10.32;4.97;;;;;;;10.90;30.74;100782.22;5094239;28;20032;-71
2023/05/10 03:34:33;;;;;;;12.77;5.07;;;;;;;11.08;30.72;100807.88;5093354;28;20020;-71
2023/05/10 03:36:59;;;;;;;14.68;5.10;;;;;;;10.97;30.95;100777.31;5058739;28;20028;-71
2023/05/10 03:39:24;;;;;;;15.50;5.03;;;;;;;11.18;30.54;100806.31;5075592;28;20028;-71
2023/05/10 03:41:50;;;;;;;12.65;4.65;;;;;;;11.07;30.38;100777.53;5092704;28;20069;-70
2023/05/10 03:44:16;;;;;;;11.05;5.20;;;;;;;11.28;30.72;100804.69;5092681;28;20081;-71
2023/05/10 03:46:41;;;;;;;9.43;4.80;;;;;;;11.22;30.52;100786.38;5092907;28;20111;-67
2023/05/10 03:49:07;;;;;;;10.10;4.80;;;;;;;11.32;30.10;100787.44;5093338;28;20123;-70
2023/05/10 03:51:32;;;;;;;11.63;4.90;;;;;;;11.47;30.29;100801.66;5093078;28;20032;-69
2023/05/10 03:53:58;;;;;;;9.68;5.13;;;;;;;11.56;30.16;100805.47;5092999;28;20024;-71
2023/05/10 03:56:23;;;;;;;22.80;5.68;;;;;;;11.66;29.75;100803.03;5093062;28;20401;-71
2023/05/10 03:58:49;;;;;;;16.63;4.65;;;;;;;11.59;29.42;100772.25;5093003;28;20031;-70
2023/05/10 04:01:14;;;;;;;13.35;4.97;;;;;;;11.85;29.51;100802.63;5092792;28;20067;-69
2023/05/10 04:03:40;;;;;;;16.02;5.60;;;;;;;11.96;29.44;100806.34;5092467;28;20036;-69
2023/05/10 04:06:08;;;;;;;15.75;4.78;;;;;;;12.08;29.08;100810.03;5092925;28;20048;-71
2023/05/10 04:08:33;;;;;;;7.93;4.65;;;;;;;12.19;29.28;100797.53;5092516;28;20069;-70
2023/05/10 04:11:10;;;;;;;13.60;4.80;;;;;;;12.36;29.29;100798.16;5092719;28;20576;-70
2023/05/10 04:13:36;;;;;;;14.23;5.53;;;;;;;12.42;29.05;100796.84;5092916;28;20516;-71
2023/05/10 04:16:02;;;;;;;9.60;4.93;;;;;;;12.52;28.78;100791.66;5092807;28;20043;-67
2023/05/10 04:18:28;;;;;;;7.80;4.97;;;;;;;12.65;28.29;100792.47;5092486;28;20042;-71
2023/05/10 04:20:53;;;;;;;10.70;4.70;;;;;;;12.81;28.34;100794.03;5074610;28;20039;-70
2023/05/10 04:23:19;;;;;;;11.13;5.40;;;;;;;12.96;28.09;100794.72;5092518;28;20030;-69
2023/05/10 04:25:44;;;;;;;14.02;5.30;;;;;;;13.11;27.54;100795.38;5092677;28;20028;-69
2023/05/10 04:28:10;;;;;;;13.70;5.03;;;;;;;13.23;27.12;100794.41;5075487;28;20064;-69
2023/05/10 04:30:35;;;;;;;13.55;5.30;;;;;;;13.29;27.20;100785.91;5092567;28;20097;-70
2023/05/10 04:33:04;;;;;;;12.00;5.47;;;;;;;13.44;26.97;100797.34;5074959;28;20055;-70
2023/05/10 04:35:29;;;;;;;13.77;5.25;;;;;;;13.53;26.86;100789.53;5092666;28;20066;-70
2023/05/10 04:37:55;;;;;;;16.10;5.50;;;;;;;13.67;26.79;100785.75;5093683;28;20036;-72
2023/05/10 04:40:20;;;;;;;15.85;5.38;;;;;;;13.81;26.72;100788.22;5097548;28;20025;-69
2023/05/10 04:42:46;;;;;;;9.15;4.63;;;;;;;13.98;26.48;100789.56;5101533;28;20047;-69
2023/05/10 04:45:12;;;;;;;11.27;4.70;;;;;;;14.16;26.03;100784.53;5103015;28;20355;-69
2023/05/10 04:47:37;;;;;;;13.35;4.93;;;;;;;14.35;25.83;100783.94;5093419;28;20040;-70
2023/05/10 04:50:04;;;;;;;14.68;5.03;;;;;;;14.60;25.58;100781.91;5092448;28;20123;-68
2023/05/10 04:52:30;;;;;;;11.02;4.50;;;;;;;14.82;25.29;100771.22;5092006;28;20031;-73
2023/05/10 04:54:56;;;;;;;9.95;4.32;;;;;;;15.13;24.64;100769.47;5092063;28;20029;-69
2023/05/10 04:57:21;;;;;;;16.65;4.63;;;;;;;15.42;24.45;100770.66;5091835;28;20100;-69
2023/05/10 04:59:47;;;;;;;11.63;4.55;;;;;;;15.68;24.10;100770.25;5092098;28;20051;-67
2023/05/10 05:02:13;;;;;;;12.60;4.60;;;;;;;15.90;23.94;100770.09;5092392;28;20071;-70
2023/05/10 05:04:39;;;;;;;11.32;4.75;;;;;;;16.07;23.31;100748.84;5074208;28;20433;-70
2023/05/10 05:07:04;;;;;;;12.85;4.88;;;;;;;16.50;22.68;100768.41;5073974;28;20048;-70
2023/05/10 05:09:31;;;;;;;13.27;4.80;;;;;;;16.74;22.52;100762.63;5091680;28;20032;-70
2023/05/10 05:11:57;;;;;;;10.90;5.00;;;;;;;17.05;22.25;100778.75;5092262;28;20361;-70
2023/05/10 05:14:24;;;;;;;17.25;5.28;;;;;;;17.39;22.05;100768.47;5091787;28;20032;-68
2023/05/10 05:16:51;;;;;;;16.17;7.18;;;;;;;17.53;21.43;100735.50;5091591;28;20417;-70
2023/05/10 05:19:17;;;;;;;12.95;5.20;;;;;;;18.15;21.00;100763.94;5094088;28;20047;-72
2023/05/10 05:21:43;;;;;;;15.52;4.70;;;;;;;18.53;20.50;100763.88;5095822;28;20032;-68
2023/05/10 05:24:09;;;;;;;21.00;5.22;;;;;;;18.83;20.01;100731.97;5095471;28;20028;-68
2023/05/10 05:26:36;;;;;;;9.23;4.32;;;;;;;19.40;19.42;100749.75;5095807;28;20068;-68
2023/05/10 05:29:02;;;;;;;19.00;5.50;;;;;;;19.80;19.20;100751.84;5095055;28;20040;-69
2023/05/10 05:31:27;;;;;;;14.23;4.95;;;;;;;19.94;19.08;100725.97;5094701;28;20093;-70
2023/05/10 05:33:53;;;;;;;13.60;4.95;;;;;;;20.29;18.91;100749.56;5094210;28;20044;-71
2023/05/10 05:36:18;;;;;;;12.48;4.97;;;;;;;20.44;18.64;100744.31;5092321;28;20034;-67
2023/05/10 05:38:44;;;;;;;16.48;4.60;;;;;;;20.46;18.60;100734.97;5095087;28;20042;-70
2023/05/10 05:41:09;;;;;;;13.90;4.68;;;;;;;20.54;18.38;100745.00;5094958;28;20023;-72
2023/05/10 05:43:34;;;;;;;9.32;4.82;;;;;;;20.59;18.25;100739.91;5077752;28;20412;-69
2023/05/10 05:46:00;;;;;;;11.20;4.13;;;;;;;20.62;17.83;100738.75;5095030;28;20047;-69
2023/05/10 05:48:26;;;;;;;10.77;4.30;;;;;;;20.61;17.91;100737.88;5076336;28;20028;-71
2023/05/10 05:50:55;;;;;;;11.05;4.32;;;;;;;20.71;18.07;100747.75;5094787;28;20028;-70
2023/05/10 05:53:21;;;;;;;13.35;4.00;;;;;;;20.60;17.67;100730.72;5094878;28;20351;-70
2023/05/10 05:55:57;;;;;;;12.85;4.10;;;;;;;20.75;17.80;100740.97;5094631;28;20031;-63
2023/05/10 05:58:24;;;;;;;15.15;4.82;;;;;;;20.54;18.06;100736.84;5073920;28;20463;-66
2023/05/10 06:00:50;;;;;;;10.40;4.40;;;;;;;20.44;18.16;100739.72;5094452;28;20474;-64
2023/05/10 06:03:16;;;;;;;11.63;4.68;;;;;;;20.37;17.87;100727.81;5095069;28;20028;-66
2023/05/10 06:05:41;;;;;;;12.45;4.38;;;;;;;20.28;18.26;100739.69;5094177;28;20039;-65
2023/05/10 06:08:07;;;;;;;8.73;4.43;;;;;;;20.21;18.31;100739.50;5094484;28;20423;-66
2023/05/10 06:10:32;;;;;;;13.10;4.00;;;;;;;20.21;17.77;100737.59;5094278;28;20043;-64
2023/05/10 06:12:58;;;;;;;13.57;3.90;;;;;;;20.24;18.01;100733.72;5094254;28;20031;-66
2023/05/10 06:15:43;;;;;;;13.60;4.55;;;;;;;20.30;17.91;100724.06;5093812;28;20058;-66
2023/05/10 06:18:08;;;;;;;12.00;4.03;;;;;;;20.32;18.14;100732.91;5093759;28;20044;-66
2023/05/10 06:20:34;;;;;;;12.23;4.28;;;;;;;20.39;18.03;100728.50;5076216;28;20035;-66
2023/05/10 06:22:59;;;;;;;13.75;4.57;;;;;;;20.42;18.02;100724.59;5094386;28;20028;-66
2023/05/10 06:25:25;;;;;;;11.10;3.95;;;;;;;20.42;18.01;100722.72;5093948;28;20028;-65
2023/05/10 06:27:50;;;;;;;14.43;4.25;;;;;;;20.43;17.66;100726.28;5093942;28;20111;-64
2023/05/10 06:30:16;;;;;;;18.27;4.53;;;;;;;20.48;17.99;100719.31;5093645;28;20028;-66
2023/05/10 06:32:43;;;;;;;9.27;3.70;;;;;;;20.61;17.77;100726.16;5094276;28;20085;-65
2023/05/10 06:35:09;;;;;;;16.60;3.80;;;;;;;20.78;17.38;100729.75;5093438;28;20104;-65
2023/05/10 06:37:35;;;;;;;12.70;3.85;;;;;;;20.88;17.35;100716.88;5093662;28;20115;-66
2023/05/10 06:40:01;;;;;;;8.07;3.70;;;;;;;21.10;16.97;100716.34;5094003;28;20056;-67
2023/05/10 06:42:27;;;;;;;15.88;4.20;;;;;;;21.27;17.28;100715.31;5093922;28;20075;-65
2023/05/10 06:44:53;;;;;;;14.43;3.90;;;;;;;21.48;16.71;100717.47;5093396;28;20126;-66
2023/05/10 06:47:18;;;;;;;11.43;3.55;;;;;;;21.48;16.34;100717.47;5093785;28;20204;-66
2023/05/10 06:49:44;;;;;;;9.93;3.40;;;;;;;21.47;16.66;100715.75;5075735;28;20032;-66
2023/05/10 06:52:09;;;;;;;11.55;4.00;;;;;;;21.56;16.28;100718.47;5093584;28;20047;-66
2023/05/10 06:54:35;;;;;;;9.65;3.80;;;;;;;21.65;16.44;100715.56;5093594;28;20024;-65
2023/05/10 06:57:02;;;;;;;10.85;3.25;;;;;;;21.82;16.13;100704.63;5093347;28;20504;-66
2023/05/10 06:59:28;;;;;;;8.93;3.03;;;;;;;22.01;15.72;100705.22;5093363;28;20153;-66
2023/05/10 07:01:54;;;;;;;17.30;3.38;;;;;;;22.27;15.61;100694.00;5093383;28;20095;-65
2023/05/10 07:04:19;;;;;;;14.90;3.10;;;;;;;22.82;14.81;100704.03;5093771;28;20063;-65
2023/05/10 07:06:46;;;;;;;7.40;2.92;;;;;;;23.05;14.90;100701.31;5092997;28;20059;-66
2023/05/10 07:09:11;;;;;;;13.13;3.35;;;;;;;23.29;14.84;100705.69;5093075;28;20092;-66
2023/05/10 07:11:37;;;;;;;8.68;2.90;;;;;;;23.46;14.55;100702.81;5075460;28;20036;-65
2023/05/10 07:14:02;;;;;;;7.72;2.80;;;;;;;23.55;14.18;100706.28;5093760;28;20040;-65
2023/05/10 07:16:28;;;;;;;9.50;2.83;;;;;;;23.63;13.72;100703.47;5092699;28;20106;-65
2023/05/10 07:18:54;;;;;;;6.10;2.70;;;;;;;23.65;14.05;100696.78;5093340;28;20159;-66
2023/05/10 07:21:23;;;;;;;8.35;2.67;;;;;;;23.78;13.74;100700.72;5093115;28;20462;-66
2023/05/10 07:23:49;;;;;;;5.68;2.67;;;;;;;23.91;13.59;100681.75;5075393;28;20028;-66
2023/05/10 07:26:15;;;;;;;11.85;3.05;;;;;;;24.27;13.40;100696.53;5092809;28;20339;-65
2023/05/10 07:28:41;;;;;;;11.32;3.50;;;;;;;24.43;13.62;100695.44;5090043;28;20038;-66
2023/05/10 07:31:06;;;;;;;10.02;3.47;;;;;;;24.65;13.53;100670.78;5091041;28;20092;-67
2023/05/10 07:33:32;;;;;;;8.65;2.70;;;;;;;25.12;13.30;100695.84;5087381;28;20024;-62
2023/05/10 07:35:57;;;;;;;17.08;3.25;;;;;;;25.60;12.97;100692.41;5087745;28;20174;-69
2023/05/10 07:38:23;;;;;;;6.07;2.72;;;;;;;26.34;12.04;100689.16;5074909;28;20449;-65
2023/05/10 07:40:48;;;;;;;6.85;2.40;;;;;;;27.27;11.01;100678.44;5092786;28;20028;-67
2023/05/10 07:43:14;;;;;;;9.50;2.40;;;;;;;28.05;10.64;100679.50;5091452;28;20032;-66
2023/05/10 07:45:39;;;;;;;4.97;2.35;;;;;;;28.58;10.40;100683.88;5092176;28;20056;-67
2023/05/10 07:48:05;;;;;;;5.40;2.65;;;;;;;29.18;10.11;100688.03;5092789;28;20409;-66
2023/05/10 07:50:30;;;;;;;5.75;2.40;;;;;;;29.68;9.63;100686.28;5074565;28;20042;-66
2023/05/10 07:52:56;;;;;;;5.47;2.45;;;;;;;30.16;9.17;100681.03;5092373;28;20035;-65
2023/05/10 07:55:22;;;;;;;6.68;2.58;;;;;;;30.55;8.94;100669.63;5092846;28;20035;-67
2023/05/10 07:57:47;;;;;;;3.55;1.92;;;;;;;31.10;8.96;100679.59;5092889;28;20526;-66
2023/05/10 08:00:17;;;;;;;3.85;2.22;;;;;;;31.47;8.56;100684.91;5092118;28;20043;-66
2023/05/10 08:02:43;;;;;;;7.40;2.50;;;;;;;31.54;8.62;100672.84;5091462;28;20466;-66
2023/05/10 08:05:09;;;;;;;4.53;2.40;;;;;;;31.65;8.31;100674.72;5091977;28;20043;-65
2023/05/10 08:07:35;;;;;;;6.05;2.72;;;;;;;31.69;7.91;100664.03;5092824;28;20420;-65
2023/05/10 08:10:01;;;;;;;3.88;2.10;;;;;;;31.60;8.24;100669.09;5092047;28;20032;-73
2023/05/10 08:12:31;;;;;;;8.23;2.00;;;;;;;31.20;8.95;100662.41;5089932;28;20058;-66
2023/05/10 08:14:57;;;;;;;6.03;2.45;;;;;;;30.72;9.14;100659.59;5076126;28;20507;-73
2023/05/10 08:17:22;;;;;;;3.42;2.35;;;;;;;30.22;9.07;100658.00;5072823;28;20078;-74
2023/05/10 08:19:48;;;;;;;7.85;2.33;;;;;;;29.81;9.62;100657.66;5091492;28;20119;-73
2023/05/10 08:22:13;;;;;;;7.38;2.72;;;;;;;29.21;9.66;100659.19;5090077;28;20472;-69
2023/05/10 08:24:39;;;;;;;7.65;2.50;;;;;;;28.43;9.89;100647.53;5086781;28;20534;-72
2023/05/10 08:27:05;;;;;;;5.05;2.40;;;;;;;27.28;10.66;100616.91;5071968;28;20513;-71
2023/05/10 08:29:31;;;;;;;3.42;2.10;;;;;;;26.28;11.93;100644.16;5091305;28;20032;-71
2023/05/10 08:31:56;;;;;;;8.25;2.05;;;;;;;25.01;12.15;100617.81;5091129;28;20489;-69
2023/05/10 08:34:22;;;;;;;8.63;2.25;;;;;;;24.30;12.32;100638.66;5092997;28;20125;-71
2023/05/10 08:36:47;;;;;;;7.65;2.28;;;;;;;23.49;12.91;100645.88;5080571;28;20091;-69
2023/05/10 08:39:13;;;;;;;3.33;2.30;;;;;;;22.87;13.72;100636.09;5104581;28;20027;-71
2023/05/10 08:41:39;;;;;;;7.32;2.85;;;;;;;22.32;14.43;100642.50;5082726;28;20078;-70
2023/05/10 08:44:07;;;;;;;6.15;2.90;;;;;;;21.80;15.19;100638.53;5092700;28;20118;-71
2023/05/10 08:46:38;;;;;;;9.10;2.65;;;;;;;21.35;15.62;100640.91;5089978;28;20157;-72
2023/05/10 08:49:07;;;;;;;7.60;2.58;;;;;;;20.92;15.82;100641.13;5089638;28;20343;-71
2023/05/10 08:51:36;;;;;;;10.13;6.63;;;;;;;20.87;16.01;100638.97;5091520;28;20093;-71
2023/05/10 08:54:04;;;;;;;5.75;2.75;;;;;;;20.78;15.98;100646.25;5093404;28;20031;-72
2023/05/10 08:56:30;;;;;;;7.55;3.13;;;;;;;20.59;16.62;100601.16;5094940;28;20032;-69
2023/05/10 08:58:57;;;;;;;5.65;2.60;;;;;;;20.81;16.22;100636.06;5094947;28;20097;-70
2023/05/10 09:01:24;;;;;;;3.63;2.05;;;;;;;20.86;15.94;100631.81;5095826;28;20028;-70
2023/05/10 09:03:50;;;;;;;5.43;1.92;;;;;;;20.87;15.63;100627.22;5095572;28;20419;-71
2023/05/10 09:06:16;;;;;;;4.65;2.30;;;;;;;21.10;15.61;100619.19;5094715;28;20050;-70
2023/05/10 09:08:42;;;;;;;5.50;2.20;;;;;;;21.43;15.22;100618.22;5095394;28;20040;-70
2023/05/10 09:11:09;;;;;;;9.10;2.45;;;;;;;21.75;15.24;100619.97;5077594;28;20032;-72
2023/05/10 09:13:36;;;;;;;4.90;2.05;;;;;;;22.01;14.80;100613.34;5094879;28;20107;-73
2023/05/10 09:16:03;;;;;;;6.43;2.08;;;;;;;21.89;14.81;100598.44;5095437;28;20028;-72
2023/05/10 09:18:29;;;;;;;5.00;1.92;;;;;;;21.93;14.89;100602.50;5076533;28;20032;-71
2023/05/10 09:20:54;;;;;;;6.78;2.40;;;;;;;21.89;14.95;100602.00;5094182;28;20111;-71
2023/05/10 09:23:20;;;;;;;10.50;2.38;;;;;;;21.65;14.45;100613.91;5095223;28;20031;-70
2023/05/10 09:25:46;;;;;;;5.03;1.85;;;;;;;21.37;15.00;100596.09;5094619;28;20393;-69
2023/05/10 09:28:12;;;;;;;5.30;1.80;;;;;;;21.19;14.67;100609.09;5094303;28;20433;-71
2023/05/10 09:30:38;;;;;;;4.80;2.10;;;;;;;20.96;15.00;100604.38;5094841;28;20119;-71
2023/05/10 09:33:03;;;;;;;4.25;2.10;;;;;;;20.67;15.13;100607.66;5094833;28;20110;-70
2023/05/10 09:35:31;;;;;;;5.32;2.03;;;;;;;20.62;15.51;100602.72;5094766;28;20040;-69
2023/05/10 09:38:02;;;;;;;7.88;2.17;;;;;;;20.91;15.04;100601.34;5094767;28;20020;-70
2023/05/10 09:40:29;;;;;;;3.00;2.10;;;;;;;21.15;14.88;100599.59;5094194;28;20071;-63
2023/05/10 09:43:07;;;;;;;4.78;2.20;;;;;;;21.43;14.46;100589.09;5094240;28;20024;-71
2023/05/10 09:45:34;;;;;;;4.72;1.95;;;;;;;21.49;14.44;100582.94;5094666;28;20050;-71
2023/05/10 09:48:03;;;;;;;3.53;2.00;;;;;;;21.60;14.65;100586.31;5083959;28;20055;-69
2023/05/10 09:50:30;;;;;;;3.10;2.22;;;;;;;21.57;14.75;100582.06;5094246;28;20128;-71
2023/05/10 09:52:58;;;;;;;5.93;2.17;;;;;;;21.81;14.97;100580.25;5094525;28;20040;-70
2023/05/10 09:55:39;;;;;;;8.05;2.70;;;;;;;22.13;14.63;100581.06;5094659;28;20043;-71
2023/05/10 09:58:09;;;;;;;4.63;2.60;;;;;;;21.81;14.70;100566.63;5094126;28;20453;-68
2023/05/10 10:00:36;;;;;;;4.35;2.45;;;;;;;21.78;14.45;100575.19;5093277;28;20032;-73
2023/05/10 10:03:03;;;;;;;4.10;2.38;;;;;;;21.13;14.76;100578.00;5094021;28;20058;-72
2023/05/10 10:05:33;;;;;;;5.05;2.65;;;;;;;20.82;15.17;100567.00;5093214;28;20089;-63
2023/05/10 10:08:00;;;;;;;2.67;2.40;;;;;;;20.48;15.86;100558.84;5093098;28;20378;-64
2023/05/10 10:10:27;;;;;;;9.13;2.35;;;;;;;20.52;15.74;100564.78;5094223;28;20036;-71
2023/05/10 10:12:53;;;;;;;5.88;2.30;;;;;;;20.59;16.11;100554.91;5094852;28;20351;-69
2023/05/10 10:15:20;;;;;;;8.07;2.50;;;;;;;20.83;16.28;100565.97;5094876;28;20036;-68
2023/05/10 10:17:46;;;;;;;7.97;2.53;;;;;;;21.15;15.69;100556.03;5094013;28;20028;-68
2023/05/10 10:20:12;;;;;;;6.15;2.78;;;;;;;21.25;15.45;100520.41;5092752;28;20465;-62
2023/05/10 10:22:38;;;;;;;6.22;2.47;;;;;;;21.79;15.14;100549.63;5093042;28;20031;-70
2023/05/10 10:25:05;;;;;;;5.20;2.38;;;;;;;22.20;15.08;100546.59;5094965;28;20031;-68
2023/05/10 10:27:36;;;;;;;4.85;2.58;;;;;;;22.41;14.78;100550.50;5093440;28;20050;-68
2023/05/10 10:30:34;;;;;;;5.47;2.33;;;;;;;22.63;14.66;100540.63;5094024;28;20039;-67
2023/05/10 10:33:25;;;;;;;3.55;1.90;;;;;;;22.74;14.56;100536.59;5094140;28;20024;-65
2023/05/10 10:35:52;;;;;;;4.75;2.22;;;;;;;22.71;14.81;100545.16;5093462;28;20031;-67
2023/05/10 10:38:17;;;;;;;5.18;2.42;;;;;;;22.66;14.11;100525.72;5075312;28;20036;-65
2023/05/10 10:40:43;;;;;;;5.35;2.42;;;;;;;22.64;14.16;100533.25;5093509;28;20060;-66
2023/05/10 10:43:26;;;;;;;6.13;2.78;;;;;;;22.51;14.61;100510.19;5075265;28;20043;-67
2023/05/10 10:46:25;;;;;;;5.65;3.17;;;;;;;22.50;14.24;100535.78;5093634;28;20024;-66
2023/05/10 10:49:08;;;;;;;4.68;2.25;;;;;;;22.29;14.14;100532.88;5037526;28;20497;-67
2023/05/10 10:51:38;;;;;;;5.25;2.22;;;;;;;21.98;14.66;100531.09;5093407;28;20024;-64
2023/05/10 10:54:10;;;;;;;3.67;2.30;;;;;;;21.76;14.56;100526.28;5093107;28;20035;-68
2023/05/10 10:56:36;;;;;;;5.55;2.50;;;;;;;21.49;14.44;100525.75;5093128;28;20046;-67
2023/05/10 10:59:01;;;;;;;6.10;2.15;;;;;;;21.44;14.79;100524.56;5093510;28;20024;-65
2023/05/10 11:01:33;;;;;;;6.03;2.85;;;;;;;21.55;15.23;100526.91;5091089;28;20024;-67
2023/05/10 11:03:58;;;;;;;7.07;2.00;;;;;;;21.41;15.39;100520.34;5092933;28;20093;-67
2023/05/10 11:06:33;;;;;;;5.28;2.08;;;;;;;21.36;15.37;100522.75;5091918;28;20139;-66
2023/05/10 11:08:59;;;;;;;7.20;1.93;;;;;;;21.12;15.59;100515.53;5092638;28;20039;-65
2023/05/10 11:11:25;;;;;;;6.30;1.83;;;;;;;20.87;15.74;100513.75;5092504;28;20036;-65
2023/05/10 11:13:51;;;;;;;9.85;2.45;;;;;;;20.79;16.12;100525.50;5091904;28;20036;-68
2023/05/10 11:16:21;;;;;;;4.22;1.95;;;;;;;20.67;16.35;100491.47;5074088;28;20435;-65
2023/05/10 11:19:09;;;;;;;3.65;1.90;;;;;;;21.08;15.99;100521.34;5071626;28;20032;-69
2023/05/10 11:21:51;;;;;;;5.32;2.10;;;;;;;21.15;15.83;100507.00;5074982;28;20089;-66
2023/05/10 11:24:21;;;;;;;4.97;2.15;;;;;;;21.36;15.84;100507.25;5090693;28;20024;-64
2023/05/10 11:26:51;;;;;;;4.28;1.90;;;;;;;21.45;15.31;100509.91;5089186;28;20354;-66